sensor_id;sensor_type;location;lat;lon;timestamp;pressure;altitude;pressure_sealevel;temperature;humidity
78990;BME280;68390;52.130;21.218;2023-05-23T00:02:32;100535.59;;;8.86;82.23
78990;BME280;68390;52.130;21.218;2023-05-23T00:05:35;100528.56;;;8.83;81.70
78990;BME280;68390;52.130;21.218;2023-05-23T00:08:37;100531.47;;;8.81;82.27
78990;BME280;68390;52.130;21.218;2023-05-23T00:11:40;100538.97;;;8.79;82.42
78990;BME280;68390;52.130;21.218;2023-05-23T00:14:44;100534.09;;;8.73;82.36
78990;BME280;68390;52.130;21.218;2023-05-23T00:17:46;100536.84;;;8.73;82.62
78990;BME280;68390;52.130;21.218;2023-05-23T00:20:49;100533.56;;;8.70;82.62
78990;BME280;68390;52.130;21.218;2023-05-23T00:23:52;100535.59;;;8.68;82.96
78990;BME280;68390;52.130;21.218;2023-05-23T00:26:55;100519.78;;;8.62;82.24
78990;BME280;68390;52.130;21.218;2023-05-23T00:29:58;100520.97;;;8.59;82.50
78990;BME280;68390;52.130;21.218;2023-05-23T00:33:01;100524.72;;;8.58;82.12
78990;BME280;68390;52.130;21.218;2023-05-23T00:36:03;100517.44;;;8.49;82.67
78990;BME280;68390;52.130;21.218;2023-05-23T00:39:06;100520.19;;;8.49;82.41
78990;BME280;68390;52.130;21.218;2023-05-23T00:42:10;100520.47;;;8.46;82.86
78990;BME280;68390;52.130;21.218;2023-05-23T00:45:13;100520.63;;;8.44;83.15
78990;BME280;68390;52.130;21.218;2023-05-23T00:48:16;100517.31;;;8.41;82.93
78990;BME280;68390;52.130;21.218;2023-05-23T00:51:19;100526.56;;;8.40;83.29
78990;BME280;68390;52.130;21.218;2023-05-23T00:54:24;100527.75;;;8.37;82.67
78990;BME280;68390;52.130;21.218;2023-05-23T00:57:28;100505.00;;;8.27;83.29
78990;BME280;68390;52.130;21.218;2023-05-23T01:00:31;100533.09;;;8.29;82.52
78990;BME280;68390;52.130;21.218;2023-05-23T01:03:34;100522.59;;;8.25;83.47
78990;BME280;68390;52.130;21.218;2023-05-23T01:06:37;100519.47;;;8.20;82.79
78990;BME280;68390;52.130;21.218;2023-05-23T01:09:39;100527.81;;;8.18;82.98
78990;BME280;68390;52.130;21.218;2023-05-23T01:16:45;100529.28;;;8.13;83.08
78990;BME280;68390;52.130;21.218;2023-05-23T01:19:59;100531.13;;;8.12;83.81
78990;BME280;68390;52.130;21.218;2023-05-23T01:23:27;100521.97;;;8.03;83.72
78990;BME280;68390;52.130;21.218;2023-05-23T08:28:01;100313.31;;;21.47;33.88
78990;BME280;68390;52.130;21.218;2023-05-23T08:30:27;100324.22;;;21.60;35.78
78990;BME280;68390;52.130;21.218;2023-05-23T08:32:54;100323.97;;;21.61;32.27
78990;BME280;68390;52.130;21.218;2023-05-23T08:35:20;100317.78;;;21.71;32.96
78990;BME280;68390;52.130;21.218;2023-05-23T08:37:46;100315.81;;;21.83;35.70
78990;BME280;68390;52.130;21.218;2023-05-23T08:40:18;100313.38;;;21.99;33.89
78990;BME280;68390;52.130;21.218;2023-05-23T08:42:48;100304.97;;;22.10;35.81
78990;BME280;68390;52.130;21.218;2023-05-23T08:45:14;100302.94;;;22.22;32.78
78990;BME280;68390;52.130;21.218;2023-05-23T08:47:44;100307.25;;;22.13;33.80
78990;BME280;68390;52.130;21.218;2023-05-23T08:50:14;100304.19;;;22.15;31.04
78990;BME280;68390;52.130;21.218;2023-05-23T08:52:52;100288.84;;;22.29;31.91
78990;BME280;68390;52.130;21.218;2023-05-23T08:55:19;100298.72;;;22.48;32.12
78990;BME280;68390;52.130;21.218;2023-05-23T08:57:44;100303.16;;;22.61;31.43
78990;BME280;68390;52.130;21.218;2023-05-23T09:00:13;100291.22;;;22.37;31.18
78990;BME280;68390;52.130;21.218;2023-05-23T09:02:42;100295.00;;;22.03;32.06
78990;BME280;68390;52.130;21.218;2023-05-23T09:05:08;100282.72;;;22.04;31.36
78990;BME280;68390;52.130;21.218;2023-05-23T09:07:34;100291.75;;;22.22;29.23
78990;BME280;68390;52.130;21.218;2023-05-23T09:10:00;100290.50;;;22.42;30.07
78990;BME280;68390;52.130;21.218;2023-05-23T09:12:25;100292.72;;;22.56;29.03
78990;BME280;68390;52.130;21.218;2023-05-23T09:14:51;100282.78;;;22.65;29.93
78990;BME280;68390;52.130;21.218;2023-05-23T09:17:19;100280.59;;;22.67;28.71
78990;BME280;68390;52.130;21.218;2023-05-23T09:19:45;100295.09;;;22.93;29.05
78990;BME280;68390;52.130;21.218;2023-05-23T09:22:11;100292.34;;;22.98;30.05
78990;BME280;68390;52.130;21.218;2023-05-23T09:24:37;100280.47;;;23.08;31.08
78990;BME280;68390;52.130;21.218;2023-05-23T09:27:06;100294.75;;;22.89;29.39
78990;BME280;68390;52.130;21.218;2023-05-23T09:29:36;100290.31;;;22.77;31.29
78990;BME280;68390;52.130;21.218;2023-05-23T09:32:11;100283.22;;;22.57;29.47
78990;BME280;68390;52.130;21.218;2023-05-23T09:34:41;100283.75;;;22.71;29.11
78990;BME280;68390;52.130;21.218;2023-05-23T09:37:07;100283.41;;;22.67;31.50
78990;BME280;68390;52.130;21.218;2023-05-23T09:39:36;100283.78;;;22.88;31.27
78990;BME280;68390;52.130;21.218;2023-05-23T09:42:01;100285.16;;;23.02;28.59
78990;BME280;68390;52.130;21.218;2023-05-23T09:44:27;100284.44;;;22.95;29.46
78990;BME280;68390;52.130;21.218;2023-05-23T09:46:52;100285.38;;;23.17;30.05
78990;BME280;68390;52.130;21.218;2023-05-23T09:49:18;100270.78;;;23.32;27.82
78990;BME280;68390;52.130;21.218;2023-05-23T09:51:56;100275.81;;;23.13;28.87
78990;BME280;68390;52.130;21.218;2023-05-23T09:54:21;100287.19;;;23.23;28.42
78990;BME280;68390;52.130;21.218;2023-05-23T09:56:47;100269.69;;;23.16;30.86
78990;BME280;68390;52.130;21.218;2023-05-23T09:59:14;100266.28;;;23.31;29.81
78990;BME280;68390;52.130;21.218;2023-05-23T10:01:43;100270.72;;;22.93;31.40
78990;BME280;68390;52.130;21.218;2023-05-23T10:04:11;100270.81;;;22.98;28.46
78990;BME280;68390;52.130;21.218;2023-05-23T10:06:46;100270.72;;;23.10;28.93
78990;BME280;68390;52.130;21.218;2023-05-23T10:09:16;100277.13;;;23.27;28.96
78990;BME280;68390;52.130;21.218;2023-05-23T10:14:43;100262.72;;;23.19;29.84
78990;BME280;68390;52.130;21.218;2023-05-23T10:17:20;100271.22;;;23.24;29.72
78990;BME280;68390;52.130;21.218;2023-05-23T10:20:03;100271.00;;;23.47;29.35
78990;BME280;68390;52.130;21.218;2023-05-23T10:22:34;100267.94;;;23.49;29.51
78990;BME280;68390;52.130;21.218;2023-05-23T10:25:02;100273.91;;;23.52;30.05
78990;BME280;68390;52.130;21.218;2023-05-23T10:27:28;100280.66;;;23.73;29.85
78990;BME280;68390;52.130;21.218;2023-05-23T10:29:54;100264.28;;;23.65;28.10
78990;BME280;68390;52.130;21.218;2023-05-23T10:32:20;100267.09;;;23.65;29.08
78990;BME280;68390;52.130;21.218;2023-05-23T10:37:28;100258.28;;;23.56;28.66
78990;BME280;68390;52.130;21.218;2023-05-23T10:40:06;100271.97;;;23.36;31.44
78990;BME280;68390;52.130;21.218;2023-05-23T10:42:51;100263.44;;;23.48;30.97
78990;BME280;68390;52.130;21.218;2023-05-23T10:45:21;100254.56;;;23.34;29.04
78990;BME280;68390;52.130;21.218;2023-05-23T10:47:50;100260.34;;;23.11;30.73
78990;BME280;68390;52.130;21.218;2023-05-23T10:50:35;100252.13;;;22.87;29.18
78990;BME280;68390;52.130;21.218;2023-05-23T10:53:04;100251.38;;;22.92;31.86
78990;BME280;68390;52.130;21.218;2023-05-23T10:55:34;100255.44;;;23.01;32.31
78990;BME280;68390;52.130;21.218;2023-05-23T10:58:11;100246.09;;;22.95;30.50
78990;BME280;68390;52.130;21.218;2023-05-23T11:00:49;100251.19;;;22.98;32.11
78990;BME280;68390;52.130;21.218;2023-05-23T11:03:15;100247.19;;;23.11;31.63
78990;BME280;68390;52.130;21.218;2023-05-23T11:05:46;100247.25;;;23.33;30.03
78990;BME280;68390;52.130;21.218;2023-05-23T11:08:13;100228.09;;;23.47;30.12
78990;BME280;68390;52.130;21.218;2023-05-23T11:11:00;100247.59;;;23.75;30.99
78990;BME280;68390;52.130;21.218;2023-05-23T11:16:24;100231.63;;;23.75;28.97
78990;BME280;68390;52.130;21.218;2023-05-23T11:18:50;100224.31;;;23.96;30.86
78990;BME280;68390;52.130;21.218;2023-05-23T11:21:15;100227.63;;;23.93;29.19
78990;BME280;68390;52.130;21.218;2023-05-23T11:23:41;100219.97;;;23.89;29.44
78990;BME280;68390;52.130;21.218;2023-05-23T11:26:30;100223.25;;;23.81;30.13
78990;BME280;68390;52.130;21.218;2023-05-23T11:28:57;100227.50;;;23.61;30.09
78990;BME280;68390;52.130;21.218;2023-05-23T11:31:23;100213.44;;;23.39;28.37
78990;BME280;68390;52.130;21.218;2023-05-23T11:33:52;100226.44;;;23.29;30.15
78990;BME280;68390;52.130;21.218;2023-05-23T11:36:20;100222.75;;;23.23;30.56
78990;BME280;68390;52.130;21.218;2023-05-23T11:38:46;100223.75;;;23.17;29.47
78990;BME280;68390;52.130;21.218;2023-05-23T11:41:11;100212.63;;;23.22;29.56
78990;BME280;68390;52.130;21.218;2023-05-23T11:43:37;100211.28;;;23.25;30.40
78990;BME280;68390;52.130;21.218;2023-05-23T11:46:13;100212.91;;;23.42;28.61
78990;BME280;68390;52.130;21.218;2023-05-23T11:48:43;100207.91;;;23.45;30.27
78990;BME280;68390;52.130;21.218;2023-05-23T11:51:09;100208.84;;;23.50;31.90
78990;BME280;68390;52.130;21.218;2023-05-23T11:53:35;100206.53;;;23.47;30.37
78990;BME280;68390;52.130;21.218;2023-05-23T11:56:01;100207.28;;;23.59;31.54
78990;BME280;68390;52.130;21.218;2023-05-23T11:58:35;100194.50;;;23.68;29.55
78990;BME280;68390;52.130;21.218;2023-05-23T12:01:03;100194.63;;;23.78;31.06
78990;BME280;68390;52.130;21.218;2023-05-23T12:03:29;100193.44;;;23.96;32.31
78990;BME280;68390;52.130;21.218;2023-05-23T12:05:54;100199.06;;;23.96;30.20
78990;BME280;68390;52.130;21.218;2023-05-23T12:08:20;100194.81;;;23.94;29.98
78990;BME280;68390;52.130;21.218;2023-05-23T12:10:54;100206.28;;;23.92;29.67
78990;BME280;68390;52.130;21.218;2023-05-23T12:13:23;100199.34;;;23.73;29.59
78990;BME280;68390;52.130;21.218;2023-05-23T12:15:51;100195.44;;;23.74;29.03
78990;BME280;68390;52.130;21.218;2023-05-23T12:18:18;100191.78;;;23.73;30.44
78990;BME280;68390;52.130;21.218;2023-05-23T12:20:44;100186.19;;;23.78;29.71
78990;BME280;68390;52.130;21.218;2023-05-23T12:23:17;100188.09;;;23.95;30.17
78990;BME280;68390;52.130;21.218;2023-05-23T12:25:43;100182.84;;;24.03;29.92
78990;BME280;68390;52.130;21.218;2023-05-23T12:28:09;100183.44;;;24.05;29.70
78990;BME280;68390;52.130;21.218;2023-05-23T12:30:41;100187.78;;;24.18;30.23
78990;BME280;68390;52.130;21.218;2023-05-23T12:33:08;100192.81;;;24.16;29.42
78990;BME280;68390;52.130;21.218;2023-05-23T12:35:34;100185.53;;;24.20;29.40
78990;BME280;68390;52.130;21.218;2023-05-23T12:37:59;100180.47;;;23.90;28.46
78990;BME280;68390;52.130;21.218;2023-05-23T12:40:25;100174.44;;;23.76;28.96
78990;BME280;68390;52.130;21.218;2023-05-23T12:42:51;100173.59;;;23.76;29.04
78990;BME280;68390;52.130;21.218;2023-05-23T12:45:21;100176.66;;;23.74;29.51
78990;BME280;68390;52.130;21.218;2023-05-23T12:47:47;100171.56;;;23.71;29.63
78990;BME280;68390;52.130;21.218;2023-05-23T12:50:12;100173.16;;;23.67;29.31
78990;BME280;68390;52.130;21.218;2023-05-23T12:52:38;100170.44;;;23.51;29.25
78990;BME280;68390;52.130;21.218;2023-05-23T12:55:05;100168.19;;;23.31;29.59
78990;BME280;68390;52.130;21.218;2023-05-23T12:57:32;100163.31;;;23.21;30.99
78990;BME280;68390;52.130;21.218;2023-05-23T12:59:58;100162.25;;;23.27;31.07
78990;BME280;68390;52.130;21.218;2023-05-23T13:02:23;100156.28;;;23.40;30.67
78990;BME280;68390;52.130;21.218;2023-05-23T13:04:49;100163.63;;;23.47;30.34
78990;BME280;68390;52.130;21.218;2023-05-23T13:07:14;100163.00;;;23.39;29.75
78990;BME280;68390;52.130;21.218;2023-05-23T13:09:40;100164.22;;;23.27;30.98
78990;BME280;68390;52.130;21.218;2023-05-23T13:12:05;100158.66;;;23.10;30.59
78990;BME280;68390;52.130;21.218;2023-05-23T13:14:30;100158.19;;;22.96;31.54
78990;BME280;68390;52.130;21.218;2023-05-23T13:16:56;100151.66;;;22.91;30.72
78990;BME280;68390;52.130;21.218;2023-05-23T13:19:21;100144.97;;;22.75;30.46
78990;BME280;68390;52.130;21.218;2023-05-23T13:21:46;100148.03;;;22.74;31.50
78990;BME280;68390;52.130;21.218;2023-05-23T13:24:12;100137.22;;;22.65;31.93
78990;BME280;68390;52.130;21.218;2023-05-23T13:26:37;100140.28;;;22.64;32.51
78990;BME280;68390;52.130;21.218;2023-05-23T13:29:04;100140.47;;;22.57;31.09
78990;BME280;68390;52.130;21.218;2023-05-23T13:31:29;100144.13;;;22.58;33.83
78990;BME280;68390;52.130;21.218;2023-05-23T13:33:55;100147.75;;;22.58;33.49
78990;BME280;68390;52.130;21.218;2023-05-23T13:36:20;100145.13;;;22.68;31.23
78990;BME280;68390;52.130;21.218;2023-05-23T13:38:46;100138.38;;;22.81;31.51
78990;BME280;68390;52.130;21.218;2023-05-23T13:41:11;100138.00;;;22.94;32.06
78990;BME280;68390;52.130;21.218;2023-05-23T13:43:36;100137.34;;;23.09;30.29
78990;BME280;68390;52.130;21.218;2023-05-23T13:46:02;100129.34;;;23.18;30.27
78990;BME280;68390;52.130;21.218;2023-05-23T13:48:27;100132.63;;;23.31;30.91
78990;BME280;68390;52.130;21.218;2023-05-23T13:50:54;100131.00;;;23.35;28.43
78990;BME280;68390;52.130;21.218;2023-05-23T13:53:20;100122.91;;;23.17;29.11
78990;BME280;68390;52.130;21.218;2023-05-23T13:55:46;100130.53;;;23.22;29.71
78990;BME280;68390;52.130;21.218;2023-05-23T13:58:11;100132.53;;;23.26;29.83
78990;BME280;68390;52.130;21.218;2023-05-23T14:00:37;100122.84;;;23.12;30.60
78990;BME280;68390;52.130;21.218;2023-05-23T14:03:02;100121.47;;;23.15;30.46
78990;BME280;68390;52.130;21.218;2023-05-23T14:05:28;100124.59;;;23.18;31.47
78990;BME280;68390;52.130;21.218;2023-05-23T14:07:53;100122.47;;;23.25;34.32
78990;BME280;68390;52.130;21.218;2023-05-23T14:10:19;100132.03;;;23.29;29.61
78990;BME280;68390;52.130;21.218;2023-05-23T14:12:45;100120.31;;;23.32;30.92
78990;BME280;68390;52.130;21.218;2023-05-23T14:15:11;100113.00;;;23.31;32.15
78990;BME280;68390;52.130;21.218;2023-05-23T14:17:36;100121.19;;;23.38;30.54
78990;BME280;68390;52.130;21.218;2023-05-23T14:20:02;100109.75;;;23.39;31.36
78990;BME280;68390;52.130;21.218;2023-05-23T14:22:27;100117.69;;;23.48;31.15
78990;BME280;68390;52.130;21.218;2023-05-23T14:24:53;100104.75;;;23.47;29.88
78990;BME280;68390;52.130;21.218;2023-05-23T14:27:18;100122.53;;;23.52;29.05
78990;BME280;68390;52.130;21.218;2023-05-23T14:29:44;100112.06;;;23.48;29.56
78990;BME280;68390;52.130;21.218;2023-05-23T14:32:11;100101.66;;;23.43;28.44
78990;BME280;68390;52.130;21.218;2023-05-23T14:34:36;100098.53;;;23.39;29.05
78990;BME280;68390;52.130;21.218;2023-05-23T14:37:02;100103.63;;;23.42;28.52
78990;BME280;68390;52.130;21.218;2023-05-23T14:39:27;100099.63;;;23.38;29.41
78990;BME280;68390;52.130;21.218;2023-05-23T14:41:54;100108.03;;;23.38;29.27
78990;BME280;68390;52.130;21.218;2023-05-23T14:44:20;100104.66;;;23.36;29.77
78990;BME280;68390;52.130;21.218;2023-05-23T14:46:45;100103.25;;;23.34;29.26
78990;BME280;68390;52.130;21.218;2023-05-23T14:49:15;100102.31;;;23.28;30.90
78990;BME280;68390;52.130;21.218;2023-05-23T14:51:41;100093.59;;;23.25;29.47
78990;BME280;68390;52.130;21.218;2023-05-23T14:54:06;100103.97;;;23.24;29.17
78990;BME280;68390;52.130;21.218;2023-05-23T14:56:33;100100.88;;;23.26;29.13
78990;BME280;68390;52.130;21.218;2023-05-23T14:58:59;100097.16;;;23.20;31.07
78990;BME280;68390;52.130;21.218;2023-05-23T15:01:25;100094.88;;;23.17;29.45
78990;BME280;68390;52.130;21.218;2023-05-23T15:03:51;100098.78;;;23.16;28.86
78990;BME280;68390;52.130;21.218;2023-05-23T15:06:16;100096.56;;;23.18;29.00
78990;BME280;68390;52.130;21.218;2023-05-23T15:08:41;100088.72;;;23.15;28.67
78990;BME280;68390;52.130;21.218;2023-05-23T15:11:07;100093.13;;;23.11;29.41
78990;BME280;68390;52.130;21.218;2023-05-23T15:13:33;100093.66;;;23.08;29.79
78990;BME280;68390;52.130;21.218;2023-05-23T15:15:59;100093.59;;;23.03;27.98
78990;BME280;68390;52.130;21.218;2023-05-23T15:18:24;100088.25;;;23.01;28.50
78990;BME280;68390;52.130;21.218;2023-05-23T15:20:50;100086.22;;;22.97;29.22
78990;BME280;68390;52.130;21.218;2023-05-23T15:23:15;100081.41;;;22.92;29.00
78990;BME280;68390;52.130;21.218;2023-05-23T15:25:41;100091.50;;;22.93;29.97
78990;BME280;68390;52.130;21.218;2023-05-23T15:28:06;100093.38;;;22.88;29.26
78990;BME280;68390;52.130;21.218;2023-05-23T15:30:31;100080.72;;;22.85;28.37
78990;BME280;68390;52.130;21.218;2023-05-23T15:32:57;100095.56;;;22.86;29.42
78990;BME280;68390;52.130;21.218;2023-05-23T15:35:22;100087.13;;;22.81;29.11
78990;BME280;68390;52.130;21.218;2023-05-23T15:37:48;100089.66;;;22.82;30.87
78990;BME280;68390;52.130;21.218;2023-05-23T15:40:13;100080.91;;;22.79;29.43
78990;BME280;68390;52.130;21.218;2023-05-23T15:42:39;100087.72;;;22.83;30.15
78990;BME280;68390;52.130;21.218;2023-05-23T15:45:04;100078.22;;;22.84;30.90
78990;BME280;68390;52.130;21.218;2023-05-23T15:47:30;100091.88;;;22.80;30.54
78990;BME280;68390;52.130;21.218;2023-05-23T15:49:55;100071.84;;;22.72;30.46
78990;BME280;68390;52.130;21.218;2023-05-23T15:52:21;100079.66;;;22.69;29.48
78990;BME280;68390;52.130;21.218;2023-05-23T15:54:46;100076.09;;;22.57;32.68
78990;BME280;68390;52.130;21.218;2023-05-23T15:57:11;100067.78;;;22.46;30.31
78990;BME280;68390;52.130;21.218;2023-05-23T15:59:37;100060.88;;;22.31;31.42
78990;BME280;68390;52.130;21.218;2023-05-23T16:02:04;100069.34;;;22.20;31.79
78990;BME280;68390;52.130;21.218;2023-05-23T16:04:30;100056.31;;;22.09;31.99
78990;BME280;68390;52.130;21.218;2023-05-23T16:06:56;100062.41;;;22.06;33.13
78990;BME280;68390;52.130;21.218;2023-05-23T16:09:21;100063.44;;;22.00;32.49
78990;BME280;68390;52.130;21.218;2023-05-23T16:11:47;100053.19;;;21.93;32.69
78990;BME280;68390;52.130;21.218;2023-05-23T16:14:12;100061.00;;;21.91;33.80
78990;BME280;68390;52.130;21.218;2023-05-23T16:16:37;100061.25;;;21.90;33.38
78990;BME280;68390;52.130;21.218;2023-05-23T16:19:03;100053.03;;;21.83;32.80
78990;BME280;68390;52.130;21.218;2023-05-23T16:21:29;100054.13;;;21.82;33.75
78990;BME280;68390;52.130;21.218;2023-05-23T16:23:54;100060.25;;;21.79;34.64
78990;BME280;68390;52.130;21.218;2023-05-23T16:26:20;100057.69;;;21.78;33.53
78990;BME280;68390;52.130;21.218;2023-05-23T16:28:45;100058.78;;;21.77;35.39
78990;BME280;68390;52.130;21.218;2023-05-23T16:31:13;100050.66;;;21.75;34.60
78990;BME280;68390;52.130;21.218;2023-05-23T16:33:38;100058.00;;;21.81;34.07
78990;BME280;68390;52.130;21.218;2023-05-23T16:36:04;100059.09;;;21.80;33.72
78990;BME280;68390;52.130;21.218;2023-05-23T16:38:30;100055.22;;;21.81;32.89
78990;BME280;68390;52.130;21.218;2023-05-23T16:40:56;100056.91;;;21.82;34.06
78990;BME280;68390;52.130;21.218;2023-05-23T16:43:22;100052.69;;;21.80;33.11
78990;BME280;68390;52.130;21.218;2023-05-23T16:45:47;100057.09;;;21.76;33.67
78990;BME280;68390;52.130;21.218;2023-05-23T16:48:13;100048.28;;;21.67;33.64
78990;BME280;68390;52.130;21.218;2023-05-23T16:50:38;100051.47;;;21.59;34.61
78990;BME280;68390;52.130;21.218;2023-05-23T16:53:03;100061.44;;;21.55;34.52
78990;BME280;68390;52.130;21.218;2023-05-23T16:55:29;100062.97;;;21.46;34.46
78990;BME280;68390;52.130;21.218;2023-05-23T16:57:54;100053.78;;;21.34;37.86
78990;BME280;68390;52.130;21.218;2023-05-23T17:00:20;100055.03;;;21.14;35.96
78990;BME280;68390;52.130;21.218;2023-05-23T17:02:46;100059.41;;;21.10;37.55
78990;BME280;68390;52.130;21.218;2023-05-23T17:05:11;100066.47;;;21.01;36.73
78990;BME280;68390;52.130;21.218;2023-05-23T17:07:36;100069.03;;;20.91;37.38
78990;BME280;68390;52.130;21.218;2023-05-23T17:10:02;100058.13;;;20.78;36.98
78990;BME280;68390;52.130;21.218;2023-05-23T17:12:27;100063.50;;;20.68;37.50
78990;BME280;68390;52.130;21.218;2023-05-23T17:14:53;100066.06;;;20.58;38.35
78990;BME280;68390;52.130;21.218;2023-05-23T17:17:18;100061.00;;;20.43;38.47
78990;BME280;68390;52.130;21.218;2023-05-23T17:19:44;100080.13;;;20.39;38.13
78990;BME280;68390;52.130;21.218;2023-05-23T17:22:09;100071.25;;;20.31;38.28
78990;BME280;68390;52.130;21.218;2023-05-23T17:24:35;100077.44;;;20.21;38.49
78990;BME280;68390;52.130;21.218;2023-05-23T17:27:01;100074.16;;;20.12;39.11
78990;BME280;68390;52.130;21.218;2023-05-23T17:29:27;100058.25;;;20.01;39.72
78990;BME280;68390;52.130;21.218;2023-05-23T17:31:53;100050.34;;;19.87;39.46
78990;BME280;68390;52.130;21.218;2023-05-23T17:34:18;100067.69;;;19.89;40.01
78990;BME280;68390;52.130;21.218;2023-05-23T17:36:44;100072.53;;;19.82;40.24
78990;BME280;68390;52.130;21.218;2023-05-23T17:39:09;100075.63;;;19.73;39.92
78990;BME280;68390;52.130;21.218;2023-05-23T17:41:36;100075.75;;;19.67;39.97
78990;BME280;68390;52.130;21.218;2023-05-23T17:44:01;100073.31;;;19.59;40.55
78990;BME280;68390;52.130;21.218;2023-05-23T17:46:27;100078.97;;;19.52;40.99
78990;BME280;68390;52.130;21.218;2023-05-23T17:48:52;100073.69;;;19.44;40.88
78990;BME280;68390;52.130;21.218;2023-05-23T17:51:18;100085.56;;;19.39;41.83
78990;BME280;68390;52.130;21.218;2023-05-23T17:53:43;100072.78;;;19.32;41.46
78990;BME280;68390;52.130;21.218;2023-05-23T17:56:09;100070.97;;;19.26;42.20
78990;BME280;68390;52.130;21.218;2023-05-23T17:58:35;100078.56;;;19.19;41.68
78990;BME280;68390;52.130;21.218;2023-05-23T18:01:02;100081.19;;;19.14;42.16
78990;BME280;68390;52.130;21.218;2023-05-23T18:03:27;100068.91;;;19.03;42.35
78990;BME280;68390;52.130;21.218;2023-05-23T18:05:53;100080.03;;;19.03;42.76
78990;BME280;68390;52.130;21.218;2023-05-23T18:08:18;100071.16;;;18.94;43.07
78990;BME280;68390;52.130;21.218;2023-05-23T18:10:43;100083.81;;;18.90;43.34
78990;BME280;68390;52.130;21.218;2023-05-23T18:13:12;100086.47;;;18.85;43.74
78990;BME280;68390;52.130;21.218;2023-05-23T18:15:37;100082.91;;;18.78;43.83
78990;BME280;68390;52.130;21.218;2023-05-23T18:18:03;100083.81;;;18.72;43.98
78990;BME280;68390;52.130;21.218;2023-05-23T18:20:28;100077.72;;;18.63;44.44
78990;BME280;68390;52.130;21.218;2023-05-23T18:22:54;100078.00;;;18.55;44.68
78990;BME280;68390;52.130;21.218;2023-05-23T18:25:20;100086.78;;;18.52;44.99
78990;BME280;68390;52.130;21.218;2023-05-23T18:27:56;100096.28;;;18.45;45.13
78990;BME280;68390;52.130;21.218;2023-05-23T18:30:22;100096.59;;;18.37;45.38
78990;BME280;68390;52.130;21.218;2023-05-23T18:32:47;100086.81;;;18.27;46.08
78990;BME280;68390;52.130;21.218;2023-05-23T18:35:13;100099.47;;;18.23;46.63
78990;BME280;68390;52.130;21.218;2023-05-23T18:37:38;100092.09;;;18.11;47.36
78990;BME280;68390;52.130;21.218;2023-05-23T18:40:05;100094.72;;;18.06;47.40
78990;BME280;68390;52.130;21.218;2023-05-23T18:42:31;100095.84;;;17.98;47.99
78990;BME280;68390;52.130;21.218;2023-05-23T18:44:56;100100.38;;;17.92;47.74
78990;BME280;68390;52.130;21.218;2023-05-23T18:47:21;100097.91;;;17.84;48.57
78990;BME280;68390;52.130;21.218;2023-05-23T18:49:47;100104.81;;;17.75;49.50
78990;BME280;68390;52.130;21.218;2023-05-23T18:52:14;100102.69;;;17.71;49.89
78990;BME280;68390;52.130;21.218;2023-05-23T18:54:39;100104.00;;;17.61;49.44
78990;BME280;68390;52.130;21.218;2023-05-23T18:57:06;100107.91;;;17.54;49.42
78990;BME280;68390;52.130;21.218;2023-05-23T18:59:31;100106.22;;;17.46;50.50
78990;BME280;68390;52.130;21.218;2023-05-23T19:01:57;100111.16;;;17.38;50.27
78990;BME280;68390;52.130;21.218;2023-05-23T19:04:24;100111.00;;;17.33;50.12
78990;BME280;68390;52.130;21.218;2023-05-23T19:06:49;100117.41;;;17.27;49.96
78990;BME280;68390;52.130;21.218;2023-05-23T19:09:15;100117.47;;;17.20;50.51
78990;BME280;68390;52.130;21.218;2023-05-23T19:11:41;100117.25;;;17.15;50.66
78990;BME280;68390;52.130;21.218;2023-05-23T19:14:06;100119.63;;;17.11;51.55
78990;BME280;68390;52.130;21.218;2023-05-23T19:16:32;100126.91;;;17.06;51.86
78990;BME280;68390;52.130;21.218;2023-05-23T19:18:58;100109.47;;;16.92;52.67
78990;BME280;68390;52.130;21.218;2023-05-23T19:21:24;100123.09;;;16.94;52.83
78990;BME280;68390;52.130;21.218;2023-05-23T19:23:49;100121.84;;;16.90;52.92
78990;BME280;68390;52.130;21.218;2023-05-23T19:26:15;100126.13;;;16.85;53.05
78990;BME280;68390;52.130;21.218;2023-05-23T19:28:40;100128.72;;;16.80;53.55
78990;BME280;68390;52.130;21.218;2023-05-23T19:31:06;100129.56;;;16.74;53.39
78990;BME280;68390;52.130;21.218;2023-05-23T19:33:32;100137.69;;;16.69;53.36
78990;BME280;68390;52.130;21.218;2023-05-23T19:35:57;100140.25;;;16.64;54.05
78990;BME280;68390;52.130;21.218;2023-05-23T19:38:23;100129.16;;;16.58;54.33
78990;BME280;68390;52.130;21.218;2023-05-23T19:40:48;100145.34;;;16.54;54.73
78990;BME280;68390;52.130;21.218;2023-05-23T19:43:14;100143.44;;;16.48;53.93
78990;BME280;68390;52.130;21.218;2023-05-23T19:45:39;100145.34;;;16.41;53.96
78990;BME280;68390;52.130;21.218;2023-05-23T19:48:05;100142.38;;;16.36;54.66
78990;BME280;68390;52.130;21.218;2023-05-23T19:50:31;100147.72;;;16.31;54.91
78990;BME280;68390;52.130;21.218;2023-05-23T19:52:57;100137.28;;;16.26;54.91
78990;BME280;68390;52.130;21.218;2023-05-23T19:55:22;100133.88;;;16.18;55.36
78990;BME280;68390;52.130;21.218;2023-05-23T19:57:48;100140.69;;;16.15;56.30
78990;BME280;68390;52.130;21.218;2023-05-23T20:00:14;100134.91;;;16.10;55.90
78990;BME280;68390;52.130;21.218;2023-05-23T20:02:40;100137.69;;;16.03;55.95
78990;BME280;68390;52.130;21.218;2023-05-23T20:05:07;100138.13;;;16.00;56.53
78990;BME280;68390;52.130;21.218;2023-05-23T20:07:32;100139.81;;;15.95;57.37
78990;BME280;68390;52.130;21.218;2023-05-23T20:10:00;100136.81;;;15.90;57.24